Spring Grove, Kansas
Current Conditions -  °F | °C
As of 11:53 PM on Sunday 19 Oct 2014 (Local Time) from KJLN Reporting Station
Broken Clouds Broken Clouds  
Wind Chill: 58°   Ceiling: 11000
Heat Index: 58°   Visibility: 10mi
Dew Point: 52°   Wind: 8mph
Humidity: 81%   Direction: 190°S
Pressure: 30.07"   Gusts: NA
Location:  37.0394°N, 94.6644°W
Report Text: KJLN 200453Z AUTO 19007KT 10SM SCT080 BKN110 14/11 A3007 RMK AO2 RAB01E10 SLP176 P0000 T01440111
Loading
Personal Weather Stations






























Interactive Weather Map
Tropical Storm Tracking
New forecast layout! Learn more

10-Day Weather Forecast

Advertisements
Track Severe Weather on mobile